createdAt,value
2023-05-12T00:00:08.561Z,14.13
2023-05-12T00:01:08.557Z,14.15
2023-05-12T00:02:08.804Z,14.13
2023-05-12T00:03:08.714Z,14.02
2023-05-12T00:05:08.675Z,14.11
2023-05-12T00:06:08.700Z,14.01
2023-05-12T00:07:08.724Z,14.05
2023-05-12T00:08:08.764Z,14.09
2023-05-12T00:09:08.785Z,14.12
2023-05-12T00:10:08.806Z,14.09
2023-05-12T00:11:08.834Z,14.19
2023-05-12T00:12:08.865Z,14.16
2023-05-12T00:13:08.892Z,14.15
2023-05-12T00:14:08.914Z,14.13
2023-05-12T00:15:08.945Z,14.05
2023-05-12T00:16:09.046Z,14.09
2023-05-12T00:17:09.001Z,14.06
2023-05-12T00:18:09.042Z,13.93
2023-05-12T00:19:09.109Z,14.05
2023-05-12T00:20:09.092Z,13.99
2023-05-12T00:21:09.111Z,13.97
2023-05-12T00:22:09.151Z,13.97
2023-05-12T00:23:09.165Z,13.93
2023-05-12T00:24:09.204Z,14.01
2023-05-12T00:25:09.245Z,13.95
2023-05-12T00:26:09.250Z,13.95
2023-05-12T00:27:09.274Z,13.97
2023-05-12T00:28:09.315Z,13.94
2023-05-12T00:29:09.333Z,13.94
2023-05-12T00:30:09.373Z,13.95
2023-05-12T00:31:09.441Z,14.02
2023-05-12T00:32:09.440Z,13.91
2023-05-12T00:33:09.446Z,13.97
2023-05-12T00:50:11.257Z,13.93
2023-05-12T00:59:10.685Z,13.97
2023-05-12T01:07:10.644Z,13.94
2023-05-12T01:08:10.860Z,13.95
2023-05-12T01:09:11.073Z,13.94
2023-05-12T01:10:10.688Z,14.08
2023-05-12T01:11:10.510Z,14.03
2023-05-12T01:12:10.542Z,14.05
2023-05-12T01:13:10.765Z,14.02
2023-05-12T01:15:10.840Z,14.03
2023-05-12T01:19:11.677Z,14.01
2023-05-12T01:21:11.707Z,13.94
2023-05-12T01:23:10.890Z,14.01
2023-05-12T01:24:11.101Z,13.91
2023-05-12T01:25:10.918Z,13.93
2023-05-12T01:26:10.940Z,13.87
2023-05-12T01:28:11.511Z,13.91
2023-05-12T01:30:11.061Z,13.78
2023-05-12T01:31:11.453Z,13.93
2023-05-12T01:35:11.411Z,13.90
2023-05-12T01:39:11.512Z,13.93
2023-05-12T01:40:11.337Z,13.95
2023-05-12T01:42:11.403Z,13.97
2023-05-12T01:43:11.627Z,14.08
2023-05-12T01:46:11.587Z,14.06
2023-05-12T01:49:37.383Z,14.03
2023-05-12T01:50:37.416Z,14.03
2023-05-12T01:51:37.449Z,14.02
2023-05-12T01:52:37.488Z,14.06
2023-05-12T01:53:37.780Z,14.01
2023-05-12T01:54:37.607Z,14.06
2023-05-12T01:55:37.760Z,14.09
2023-05-12T01:56:37.591Z,14.02
2023-05-12T01:57:37.622Z,14.03
2023-05-12T01:58:37.659Z,14.05
2023-05-12T01:59:37.698Z,14.13
2023-05-12T02:00:37.692Z,14.12
2023-05-12T02:01:37.723Z,14.11
2023-05-12T02:02:38.583Z,14.13
2023-05-12T02:03:37.927Z,14.13
2023-05-12T02:04:37.865Z,14.16
2023-05-12T02:05:37.928Z,14.11
2023-05-12T02:06:38.058Z,14.13
2023-05-12T02:07:38.090Z,14.16
2023-05-12T02:09:40.528Z,14.09
2023-05-12T02:10:40.532Z,13.95
2023-05-12T02:11:40.554Z,14.09
2023-05-12T02:12:40.844Z,14.03
2023-05-12T02:13:40.627Z,14.03
2023-05-12T02:14:40.964Z,14.19
2023-05-12T02:15:40.682Z,14.16
2023-05-12T02:16:40.992Z,14.16
2023-05-12T02:17:40.961Z,14.12
2023-05-12T02:18:40.782Z,14.15
2023-05-12T02:19:41.391Z,14.15
2023-05-12T02:20:41.231Z,14.16
2023-05-12T02:21:41.082Z,14.09
2023-05-12T02:22:40.879Z,14.05
2023-05-12T02:24:41.134Z,14.08
2023-05-12T02:26:41.044Z,14.16
2023-05-12T02:28:41.059Z,14.03
2023-05-12T02:32:41.384Z,14.02
2023-05-12T02:33:41.804Z,14.02
2023-05-12T02:34:41.423Z,13.97
2023-05-12T02:37:41.302Z,14.01
2023-05-12T02:38:42.636Z,14.02
2023-05-12T02:39:41.563Z,14.02
2023-05-12T02:40:42.710Z,14.06
2023-05-12T02:41:42.529Z,14.05
2023-05-12T02:42:42.173Z,14.01
2023-05-12T02:43:41.469Z,14.09
2023-05-12T02:44:41.705Z,13.95
2023-05-12T02:45:42.246Z,13.95
2023-05-12T02:46:41.561Z,13.97
2023-05-12T02:50:41.671Z,14.01
2023-05-12T02:51:41.921Z,13.99
2023-05-12T02:56:41.842Z,14.01
2023-05-12T02:59:54.524Z,13.94
2023-05-12T03:01:06.716Z,13.84
2023-05-12T03:01:54.585Z,13.72
2023-05-12T03:02:54.711Z,13.83
2023-05-12T03:04:47.184Z,13.83
2023-05-12T03:05:47.235Z,13.79
2023-05-12T03:08:47.307Z,13.84
2023-05-12T03:09:47.544Z,13.88
2023-05-12T03:14:47.682Z,13.65
2023-05-12T03:16:49.417Z,13.63
2023-05-12T03:19:48.515Z,13.68
2023-05-12T03:32:48.107Z,13.66
2023-05-12T03:39:49.897Z,13.65
2023-05-12T03:44:48.324Z,13.68
2023-05-12T04:02:49.137Z,13.44
2023-05-12T04:11:49.622Z,13.39
2023-05-12T04:14:49.357Z,13.47
2023-05-12T04:22:49.578Z,13.32
2023-05-12T04:27:50.449Z,13.24
2023-05-12T04:32:50.998Z,13.16
2023-05-12T04:33:50.494Z,13.13
2023-05-12T04:38:50.735Z,13.19
2023-05-12T04:57:51.680Z,13.24
2023-05-12T05:13:50.830Z,13.39
2023-05-12T05:16:52.184Z,13.40
2023-05-12T05:18:55.548Z,13.39
2023-05-12T05:26:00.203Z,13.58
2023-05-12T05:27:00.239Z,13.70
2023-05-12T05:28:00.259Z,13.69
2023-05-12T05:29:02.945Z,13.68
2023-05-12T05:30:00.314Z,13.69
2023-05-12T05:32:50.522Z,13.73
2023-05-12T05:33:50.785Z,13.83
2023-05-12T05:34:50.559Z,13.86
2023-05-12T05:35:51.798Z,13.86
2023-05-12T05:36:50.638Z,13.84
2023-05-12T05:37:50.636Z,13.78
2023-05-12T05:38:50.663Z,13.78
2023-05-12T05:39:50.694Z,13.75
2023-05-12T05:40:53.884Z,13.84
2023-05-12T05:41:50.751Z,13.76
2023-05-12T05:42:50.778Z,13.84
2023-05-12T05:43:50.810Z,13.90
2023-05-12T05:44:50.856Z,13.84
2023-05-12T05:45:50.872Z,13.79
2023-05-12T05:46:50.937Z,13.73
2023-05-12T05:47:50.949Z,13.83
2023-05-12T05:49:38.499Z,13.90
2023-05-12T05:51:51.150Z,13.76
2023-05-12T05:52:51.221Z,13.66
2023-05-12T05:53:51.236Z,13.66
2023-05-12T05:56:41.402Z,13.76
2023-05-12T05:57:41.418Z,13.73
2023-05-12T05:58:42.250Z,13.75
2023-05-12T05:59:42.078Z,13.73
2023-05-12T06:00:41.640Z,13.84
2023-05-12T06:01:41.543Z,13.84
2023-05-12T06:02:41.735Z,13.86
2023-05-12T06:03:41.669Z,13.99
2023-05-12T06:04:41.601Z,13.90
2023-05-12T06:05:41.633Z,13.88
2023-05-12T06:06:41.660Z,13.88
2023-05-12T06:07:41.695Z,13.90
2023-05-12T06:08:41.713Z,14.05
2023-05-12T06:09:41.741Z,14.20
2023-05-12T06:10:41.770Z,14.19
2023-05-12T06:11:41.798Z,14.27
2023-05-12T06:12:41.829Z,14.79
2023-05-12T06:13:41.854Z,14.97
2023-05-12T06:14:41.896Z,15.23
2023-05-12T06:15:41.910Z,15.59
2023-05-12T06:16:42.018Z,15.44
2023-05-12T06:17:41.986Z,15.58
2023-05-12T06:18:42.224Z,15.56
2023-05-12T06:19:42.027Z,15.68
2023-05-12T06:20:42.070Z,15.60
2023-05-12T06:21:42.088Z,15.70
2023-05-12T06:22:42.118Z,15.83
2023-05-12T06:23:42.142Z,15.77
2023-05-12T06:24:42.395Z,15.80
2023-05-12T06:27:42.279Z,15.80
2023-05-12T06:28:42.294Z,15.67
2023-05-12T06:29:42.336Z,15.52
2023-05-12T06:30:42.373Z,15.45
2023-05-12T06:31:42.406Z,15.40
2023-05-12T06:32:42.476Z,15.26
2023-05-12T06:33:42.453Z,15.12
2023-05-12T06:34:42.485Z,15.27
2023-05-12T06:35:42.526Z,15.41
2023-05-12T06:36:43.059Z,15.55
2023-05-12T06:37:42.594Z,15.92
2023-05-12T06:38:42.818Z,15.98
2023-05-12T06:39:42.647Z,15.99
2023-05-12T06:40:43.385Z,16.26
2023-05-12T06:41:42.705Z,16.57
2023-05-12T06:42:42.736Z,16.69
2023-05-12T06:43:42.777Z,16.55
2023-05-12T06:45:43.020Z,16.54
2023-05-12T06:46:42.925Z,16.51
2023-05-12T06:47:42.904Z,16.33
2023-05-12T06:48:42.933Z,16.21
2023-05-12T06:49:42.937Z,16.07
2023-05-12T06:50:42.970Z,16.06
2023-05-12T06:51:43.001Z,16.04
2023-05-12T06:52:43.048Z,16.07
2023-05-12T06:53:43.076Z,16.04
2023-05-12T06:54:43.091Z,15.95
2023-05-12T06:55:43.123Z,16.02
2023-05-12T06:56:43.171Z,15.96
2023-05-12T06:57:43.419Z,15.96
2023-05-12T06:58:43.233Z,16.07
2023-05-12T06:59:43.270Z,16.21
2023-05-12T07:00:43.289Z,16.59
2023-05-12T07:01:43.425Z,16.97
2023-05-12T07:02:43.608Z,17.13
2023-05-12T07:03:43.706Z,17.36
2023-05-12T07:04:43.425Z,17.50
2023-05-12T07:05:43.489Z,17.28
2023-05-12T07:06:43.474Z,17.07
2023-05-12T07:07:44.093Z,17.02
2023-05-12T07:08:43.523Z,16.99
2023-05-12T07:09:43.551Z,17.09
2023-05-12T07:10:45.196Z,16.90
2023-05-12T07:11:43.610Z,16.85
2023-05-12T07:12:43.642Z,16.69
2023-05-12T07:13:43.673Z,16.65
2023-05-12T07:14:43.903Z,16.74
2023-05-12T07:15:43.769Z,16.74
2023-05-12T07:16:43.767Z,16.48
2023-05-12T07:17:43.847Z,16.47
2023-05-12T07:18:43.895Z,16.49
2023-05-12T07:19:43.857Z,16.37
2023-05-12T07:20:43.930Z,16.40
2023-05-12T07:21:44.136Z,16.29
2023-05-12T07:22:43.948Z,16.32
2023-05-12T07:23:43.986Z,16.33
2023-05-12T07:24:44.033Z,16.39
2023-05-12T07:25:44.445Z,16.34
2023-05-12T07:26:44.088Z,16.30
2023-05-12T07:27:44.109Z,16.33
2023-05-12T07:28:44.334Z,16.44
2023-05-12T07:29:44.378Z,16.49
2023-05-12T07:30:44.211Z,16.47
2023-05-12T07:31:44.287Z,16.51
2023-05-12T07:32:44.311Z,16.51
2023-05-12T07:34:44.535Z,16.32
2023-05-12T07:35:44.361Z,16.30
2023-05-12T07:36:44.480Z,16.33
2023-05-12T07:37:44.425Z,16.33
2023-05-12T07:39:44.677Z,16.44
2023-05-12T07:40:44.712Z,16.51
2023-05-12T07:41:44.538Z,16.51
2023-05-12T07:42:44.585Z,16.37
2023-05-12T07:43:44.610Z,16.44
2023-05-12T07:44:45.146Z,16.42
2023-05-12T07:45:45.266Z,16.47
2023-05-12T07:46:44.728Z,16.51
2023-05-12T07:47:44.758Z,16.51
2023-05-12T07:48:44.754Z,16.62
2023-05-12T07:49:44.782Z,16.59
2023-05-12T07:50:44.805Z,16.69
2023-05-12T07:51:45.047Z,16.65
2023-05-12T07:52:45.083Z,16.65
2023-05-12T07:53:45.207Z,16.77
2023-05-12T07:54:45.541Z,16.63
2023-05-12T07:55:44.957Z,16.67
2023-05-12T07:56:45.230Z,16.49
2023-05-12T07:57:45.022Z,16.49
2023-05-12T07:58:47.368Z,16.42
2023-05-12T07:59:45.082Z,16.44
2023-05-12T08:00:45.112Z,16.47
2023-05-12T08:02:45.573Z,16.54
2023-05-12T08:03:45.264Z,16.57
2023-05-12T08:04:45.241Z,16.54
2023-05-12T08:06:45.706Z,16.91
2023-05-12T08:08:45.360Z,17.07
2023-05-12T08:09:45.587Z,17.03
2023-05-12T08:10:45.398Z,17.25
2023-05-12T08:11:48.107Z,17.27
2023-05-12T08:12:45.473Z,17.43
2023-05-12T08:13:45.512Z,17.46
2023-05-12T08:14:46.070Z,17.38
2023-05-12T08:15:45.773Z,17.32
2023-05-12T08:16:45.649Z,17.15
2023-05-12T08:17:45.657Z,17.18
2023-05-12T08:18:45.695Z,17.40
2023-05-12T08:19:45.673Z,17.65
2023-05-12T08:20:45.718Z,17.55
2023-05-12T08:21:45.732Z,17.63
2023-05-12T08:22:45.760Z,17.80
2023-05-12T08:23:45.797Z,17.86
2023-05-12T08:24:45.848Z,17.94
2023-05-12T08:26:58.898Z,18.06
2023-05-12T08:27:58.512Z,17.84
2023-05-12T08:28:58.533Z,17.62
2023-05-12T08:31:21.284Z,17.30
2023-05-12T08:32:21.370Z,17.25
2023-05-12T08:33:21.329Z,17.24
2023-05-12T08:34:21.358Z,17.27
2023-05-12T08:35:21.593Z,17.27
2023-05-12T08:36:21.426Z,17.39
2023-05-12T08:37:21.447Z,17.39
2023-05-12T08:38:21.478Z,17.42
2023-05-12T08:39:21.508Z,17.63
2023-05-12T08:40:21.631Z,17.86
2023-05-12T08:41:21.561Z,18.14
2023-05-12T08:42:21.601Z,18.31
2023-05-12T08:43:24.259Z,18.51
2023-05-12T08:44:21.653Z,18.60
2023-05-12T08:45:22.262Z,18.39
2023-05-12T08:46:21.792Z,18.42
2023-05-12T08:47:21.729Z,18.56
2023-05-12T08:49:04.717Z,18.49
2023-05-12T08:50:04.731Z,18.39
2023-05-12T08:51:04.753Z,18.49
2023-05-12T08:52:04.789Z,18.39
2023-05-12T08:53:04.803Z,18.32
2023-05-12T08:54:05.442Z,18.49
2023-05-12T08:55:05.103Z,18.47
2023-05-12T08:57:09.626Z,18.42
2023-05-12T08:58:04.956Z,18.45
2023-05-12T08:59:08.209Z,18.56
2023-05-12T09:00:05.103Z,18.49
2023-05-12T09:01:05.084Z,18.49
2023-05-12T09:02:05.132Z,18.68
2023-05-12T09:03:05.157Z,18.75
2023-05-12T09:04:05.171Z,18.71
2023-05-12T09:05:05.164Z,18.87
2023-05-12T09:06:05.199Z,18.63
2023-05-12T09:07:05.233Z,18.59
2023-05-12T09:08:05.258Z,18.44
2023-05-12T09:09:05.296Z,18.53
2023-05-12T09:10:05.322Z,18.54
2023-05-12T09:11:05.371Z,18.76
2023-05-12T09:12:05.493Z,18.76
2023-05-12T09:13:05.431Z,18.71
2023-05-12T09:14:05.448Z,18.78
2023-05-12T09:15:05.475Z,18.63
2023-05-12T09:16:05.528Z,18.84
2023-05-12T09:17:05.547Z,18.87
2023-05-12T09:18:05.606Z,18.91
2023-05-12T09:19:07.232Z,18.89
2023-05-12T09:20:05.636Z,19.07
2023-05-12T09:21:05.662Z,19.17
2023-05-12T09:22:05.698Z,19.30
2023-05-12T09:23:05.726Z,19.20
2023-05-12T09:24:05.764Z,19.20
2023-05-12T09:25:05.815Z,19.24
2023-05-12T09:26:05.826Z,19.17
2023-05-12T09:27:05.855Z,19.12
2023-05-12T09:28:05.964Z,19.06
2023-05-12T09:29:05.918Z,18.93
2023-05-12T09:30:05.950Z,19.02
2023-05-12T09:31:06.054Z,18.94
2023-05-12T09:32:06.037Z,18.96
2023-05-12T09:33:06.090Z,18.96
2023-05-12T09:34:06.083Z,19.06
2023-05-12T09:35:06.104Z,19.09
2023-05-12T09:36:06.138Z,19.15
2023-05-12T09:37:06.169Z,18.99
2023-05-12T09:38:06.222Z,18.96
2023-05-12T09:39:06.231Z,19.05
2023-05-12T09:40:06.264Z,18.91
2023-05-12T09:41:06.294Z,18.91
2023-05-12T09:42:06.331Z,18.94
2023-05-12T09:43:06.357Z,18.86
2023-05-12T09:44:06.702Z,18.81
2023-05-12T09:45:06.416Z,18.91
2023-05-12T09:46:06.490Z,19.25
2023-05-12T09:47:06.486Z,19.43
2023-05-12T09:48:06.546Z,19.75
2023-05-12T09:49:06.544Z,19.86
2023-05-12T09:50:06.588Z,20.32
2023-05-12T09:51:06.604Z,20.58
2023-05-12T09:52:06.653Z,20.78
2023-05-12T09:53:06.674Z,20.93
2023-05-12T09:54:08.039Z,21.21
2023-05-12T09:55:06.733Z,21.61
2023-05-12T09:56:06.769Z,21.55
2023-05-12T09:57:06.796Z,21.92
2023-05-12T09:58:06.824Z,22.22
2023-05-12T09:59:06.874Z,22.41
2023-05-12T10:00:16.982Z,22.75
2023-05-12T10:01:50.601Z,23.12
2023-05-12T10:02:50.628Z,23.25
2023-05-12T10:03:50.613Z,23.15
2023-05-12T10:04:50.697Z,23.09
2023-05-12T10:05:50.678Z,22.92
2023-05-12T10:06:50.707Z,23.18
2023-05-12T10:07:50.739Z,22.45
2023-05-12T10:08:50.779Z,22.29
2023-05-12T10:09:50.803Z,22.29
2023-05-12T10:10:50.854Z,22.16
2023-05-12T10:11:53.529Z,22.20
2023-05-12T10:12:50.905Z,21.94
2023-05-12T10:13:50.936Z,21.97
2023-05-12T10:14:50.974Z,21.90
2023-05-12T10:15:51.039Z,21.90
2023-05-12T10:16:51.082Z,21.85
2023-05-12T10:17:53.724Z,21.58
2023-05-12T10:18:51.249Z,21.56
2023-05-12T10:19:51.148Z,21.59
2023-05-12T10:20:51.182Z,21.64
2023-05-12T10:21:51.199Z,21.58
2023-05-12T10:22:51.234Z,21.27
2023-05-12T10:23:51.312Z,21.18
2023-05-12T10:24:51.301Z,21.16
2023-05-12T10:25:51.339Z,21.36
2023-05-12T10:26:51.392Z,21.41
2023-05-12T10:27:51.398Z,21.51
2023-05-12T10:28:51.448Z,21.58
2023-05-12T10:29:53.524Z,21.61
2023-05-12T10:30:51.500Z,21.53
2023-05-12T10:31:51.585Z,21.52
2023-05-12T10:32:51.625Z,21.62
2023-05-12T10:33:51.617Z,21.49
2023-05-12T10:34:51.867Z,21.59
2023-05-12T10:35:51.983Z,21.82
2023-05-12T10:36:51.698Z,21.82
2023-05-12T10:37:51.742Z,21.92
2023-05-12T10:38:51.786Z,21.64
2023-05-12T10:39:51.798Z,21.31
2023-05-12T10:40:51.846Z,20.81
2023-05-12T10:41:52.751Z,20.86
2023-05-12T10:42:51.906Z,20.83
2023-05-12T10:43:51.923Z,20.79
2023-05-12T10:44:51.978Z,20.72
2023-05-12T10:45:52.244Z,20.60
2023-05-12T10:46:52.153Z,20.51
2023-05-12T10:47:52.221Z,20.71
2023-05-12T10:48:52.089Z,20.57
2023-05-12T10:49:52.648Z,20.81
2023-05-12T10:50:52.156Z,20.94
2023-05-12T10:51:52.195Z,21.11
2023-05-12T10:52:52.544Z,21.21
2023-05-12T10:53:54.613Z,21.18
2023-05-12T10:54:52.286Z,21.22
2023-05-12T10:55:52.578Z,21.09
2023-05-12T10:56:52.625Z,21.27
2023-05-12T10:57:52.712Z,21.34
2023-05-12T10:58:52.627Z,21.46
2023-05-12T10:59:53.177Z,21.33
2023-05-12T11:00:52.993Z,21.45
2023-05-12T11:01:52.841Z,21.40
2023-05-12T11:02:53.880Z,21.45
2023-05-12T11:03:53.731Z,21.64
2023-05-12T11:04:53.038Z,21.78
2023-05-12T11:05:53.289Z,21.76
2023-05-12T11:06:53.222Z,21.62
2023-05-12T11:07:52.882Z,21.83
2023-05-12T11:08:53.305Z,21.89
2023-05-12T11:09:57.687Z,21.85
2023-05-12T11:10:53.709Z,21.67
2023-05-12T11:11:54.148Z,21.56
2023-05-12T11:12:52.864Z,21.30
2023-05-12T11:13:52.899Z,21.09
2023-05-12T11:14:52.943Z,21.06
2023-05-12T11:15:52.984Z,20.85
2023-05-12T11:16:52.998Z,20.97
2023-05-12T11:17:53.461Z,21.19
2023-05-12T11:18:53.090Z,21.28
2023-05-12T11:19:53.188Z,21.45
2023-05-12T11:20:53.129Z,21.52
2023-05-12T11:21:53.167Z,21.49
2023-05-12T11:22:53.208Z,21.67
2023-05-12T11:23:53.241Z,21.70
2023-05-12T11:24:53.382Z,21.77
2023-05-12T11:25:53.910Z,21.77
2023-05-12T11:28:53.400Z,22.02
2023-05-12T11:29:54.128Z,22.15
2023-05-12T11:30:55.189Z,21.99
2023-05-12T11:31:53.523Z,22.14
2023-05-12T11:32:53.538Z,22.15
2023-05-12T11:34:04.516Z,22.24
2023-05-12T11:34:53.600Z,22.26
2023-05-12T11:35:53.629Z,22.26
2023-05-12T11:36:53.638Z,22.38
2023-05-12T11:37:53.680Z,22.36
2023-05-12T11:38:53.729Z,22.31
2023-05-12T11:39:54.085Z,22.33
2023-05-12T11:40:53.776Z,22.36
2023-05-12T11:41:59.522Z,22.45
2023-05-12T11:42:53.841Z,22.33
2023-05-12T11:43:53.869Z,22.59
2023-05-12T11:44:53.907Z,22.60
2023-05-12T11:45:53.967Z,22.54
2023-05-12T11:46:53.967Z,22.39
2023-05-12T11:47:54.035Z,22.27
2023-05-12T11:48:54.033Z,22.02
2023-05-12T11:49:54.063Z,22.00
2023-05-12T11:50:54.143Z,21.99
2023-05-12T11:51:54.182Z,22.18
2023-05-12T11:52:54.179Z,22.09
2023-05-12T11:53:54.192Z,22.08
2023-05-12T11:54:54.228Z,21.99
2023-05-12T11:55:54.258Z,22.14
2023-05-12T11:56:54.317Z,22.31
2023-05-12T11:57:54.325Z,22.30
2023-05-12T11:58:54.357Z,22.57
2023-05-12T11:59:54.405Z,22.63
2023-05-12T12:00:54.492Z,22.59
2023-05-12T12:01:54.456Z,22.45
2023-05-12T12:02:54.552Z,22.42
2023-05-12T12:03:54.626Z,22.49
2023-05-12T12:04:54.558Z,22.48
2023-05-12T12:05:54.587Z,22.57
2023-05-12T12:06:54.623Z,22.60
2023-05-12T12:07:54.698Z,22.75
2023-05-12T12:08:54.687Z,22.66
2023-05-12T12:09:54.718Z,22.60
2023-05-12T12:10:57.378Z,22.67
2023-05-12T12:12:54.815Z,22.75
2023-05-12T12:13:54.849Z,22.66
2023-05-12T12:14:54.881Z,22.69
2023-05-12T12:15:54.970Z,22.63
2023-05-12T12:16:54.948Z,22.67
2023-05-12T12:17:55.060Z,22.26
2023-05-12T12:18:55.073Z,22.09
2023-05-12T12:19:55.252Z,21.99
2023-05-12T12:20:55.077Z,21.89
2023-05-12T12:21:55.117Z,21.80
2023-05-12T12:22:55.146Z,21.86
2023-05-12T12:23:55.219Z,21.96
2023-05-12T12:24:55.207Z,22.07
2023-05-12T12:25:55.243Z,22.11
2023-05-12T12:26:55.270Z,21.92
2023-05-12T12:27:55.307Z,21.97
2023-05-12T12:28:55.351Z,22.00
2023-05-12T12:29:55.368Z,21.83
2023-05-12T12:30:55.423Z,21.90
2023-05-12T12:31:55.437Z,22.05
2023-05-12T12:32:55.544Z,22.11
2023-05-12T12:33:56.312Z,22.11
2023-05-12T12:34:55.533Z,22.24
2023-05-12T12:35:55.565Z,22.33
2023-05-12T12:36:55.595Z,22.51
2023-05-12T12:37:55.637Z,22.66
2023-05-12T12:38:55.665Z,22.73
2023-05-12T12:39:55.808Z,22.89
2023-05-12T12:40:58.348Z,23.12
2023-05-12T12:41:55.758Z,23.18
2023-05-12T12:42:55.789Z,23.35
2023-05-12T12:43:55.824Z,23.45
2023-05-12T12:44:55.853Z,23.45
2023-05-12T12:45:55.901Z,23.44
2023-05-12T12:46:55.950Z,22.76
2023-05-12T12:47:56.023Z,22.69
2023-05-12T12:48:56.137Z,22.79
2023-05-12T12:49:56.019Z,22.89
2023-05-12T12:50:56.059Z,22.96
2023-05-12T12:51:56.087Z,23.09
2023-05-12T12:52:56.120Z,23.15
2023-05-12T12:53:56.152Z,23.14
2023-05-12T12:54:56.182Z,23.19
2023-05-12T12:55:56.247Z,23.32
2023-05-12T12:56:56.244Z,23.18
2023-05-12T12:57:59.912Z,23.29
2023-05-12T12:58:56.319Z,23.16
2023-05-12T12:59:56.351Z,23.19
2023-05-12T13:00:56.419Z,23.26
2023-05-12T13:01:56.433Z,23.22
2023-05-12T13:02:56.711Z,23.25
2023-05-12T13:04:00.321Z,23.32
2023-05-12T13:05:56.561Z,23.44
2023-05-12T13:06:56.568Z,23.56
2023-05-12T13:07:56.806Z,23.64
2023-05-12T13:08:56.713Z,23.56
2023-05-12T13:09:56.984Z,23.55
2023-05-12T13:11:56.759Z,23.35
2023-05-12T13:13:39.325Z,23.16
2023-05-12T13:14:39.360Z,23.18
2023-05-12T13:15:39.388Z,23.21
2023-05-12T13:16:39.444Z,23.26
2023-05-12T13:17:39.506Z,23.16
2023-05-12T13:18:39.533Z,23.26
2023-05-12T13:19:39.532Z,23.25
2023-05-12T13:20:39.564Z,23.16
2023-05-12T13:21:39.582Z,22.81
2023-05-12T13:22:39.612Z,22.59
2023-05-12T13:23:39.846Z,22.48
2023-05-12T13:24:39.713Z,22.60
2023-05-12T13:25:39.911Z,22.57
2023-05-12T13:26:39.776Z,22.55
2023-05-12T13:27:39.793Z,22.57
2023-05-12T13:28:39.805Z,22.42
2023-05-12T13:29:39.838Z,22.46
2023-05-12T13:30:39.884Z,22.34
2023-05-12T13:34:15.809Z,21.97
2023-05-12T13:35:15.850Z,22.00
2023-05-12T13:36:15.873Z,22.07
2023-05-12T13:37:15.902Z,21.94
2023-05-12T13:38:15.941Z,21.86
2023-05-12T13:39:17.292Z,21.97
2023-05-12T13:40:16.000Z,21.97
2023-05-12T13:41:16.065Z,21.89
2023-05-12T13:42:16.066Z,21.80
2023-05-12T13:43:16.153Z,21.86
2023-05-12T13:44:16.127Z,21.94
2023-05-12T13:45:17.232Z,21.92
2023-05-12T13:46:16.245Z,21.97
2023-05-12T13:47:16.250Z,22.04
2023-05-12T13:49:16.306Z,21.93
2023-05-12T13:51:16.368Z,22.00
2023-05-12T13:52:16.409Z,21.86
2023-05-12T13:53:16.415Z,21.96
2023-05-12T13:54:16.445Z,21.93
2023-05-12T13:55:21.412Z,21.96
2023-05-12T13:56:16.517Z,21.94
2023-05-12T13:57:16.594Z,21.97
2023-05-12T13:58:16.599Z,21.96
2023-05-12T13:59:16.619Z,22.23
2023-05-12T14:00:16.660Z,22.11
2023-05-12T14:01:16.742Z,22.18
2023-05-12T14:02:16.702Z,22.11
2023-05-12T14:04:16.763Z,22.15
2023-05-12T14:05:16.840Z,22.15
2023-05-12T14:06:16.830Z,22.12
2023-05-12T14:07:16.869Z,22.15
2023-05-12T14:08:16.907Z,22.08
2023-05-12T14:09:16.946Z,22.07
2023-05-12T14:10:16.955Z,22.00
2023-05-12T14:11:16.999Z,22.00
2023-05-12T14:12:17.033Z,21.86
2023-05-12T14:13:17.059Z,21.71
2023-05-12T14:14:17.097Z,21.80
2023-05-12T14:15:24.094Z,21.62
2023-05-12T14:16:17.478Z,21.70
2023-05-12T14:17:17.207Z,21.64
2023-05-12T14:18:17.416Z,21.55
2023-05-12T14:19:17.339Z,21.52
2023-05-12T14:20:17.594Z,21.51
2023-05-12T14:21:17.303Z,21.51
2023-05-12T14:22:25.438Z,21.48
2023-05-12T14:23:17.403Z,21.49
2023-05-12T14:24:17.407Z,21.45
2023-05-12T14:25:17.444Z,21.46
2023-05-12T14:26:17.469Z,21.49
2023-05-12T14:27:17.506Z,21.43
2023-05-12T14:28:17.800Z,21.45
2023-05-12T14:29:17.882Z,21.40
2023-05-12T14:30:17.609Z,21.45
2023-05-12T14:31:17.701Z,21.40
2023-05-12T14:32:17.671Z,21.40
2023-05-12T14:33:18.004Z,21.43
2023-05-12T14:34:17.930Z,21.48
2023-05-12T14:35:17.758Z,21.55
2023-05-12T14:36:18.001Z,21.59
2023-05-12T14:37:18.026Z,21.62
2023-05-12T14:38:17.863Z,21.59
2023-05-12T14:39:17.886Z,21.61
2023-05-12T14:40:18.123Z,21.59
2023-05-12T14:41:18.155Z,21.64
2023-05-12T14:42:17.976Z,21.64
2023-05-12T14:43:18.015Z,21.64
2023-05-12T14:45:18.496Z,21.67
2023-05-12T14:46:18.705Z,21.64
2023-05-12T14:47:18.161Z,21.61
2023-05-12T14:48:18.163Z,21.62
2023-05-12T14:49:18.212Z,21.62
2023-05-12T14:50:18.437Z,21.59
2023-05-12T14:51:18.276Z,21.61
2023-05-12T14:52:18.304Z,21.59
2023-05-12T14:53:18.333Z,21.55
2023-05-12T14:55:18.467Z,21.51
2023-05-12T14:56:18.643Z,21.45
2023-05-12T14:57:18.477Z,21.51
2023-05-12T14:58:18.496Z,21.45
2023-05-12T14:59:18.821Z,21.49
2023-05-12T15:01:18.991Z,21.37
2023-05-12T15:02:18.698Z,21.30
2023-05-12T15:03:18.763Z,21.23
2023-05-12T15:04:18.696Z,21.21
2023-05-12T15:05:18.830Z,21.15
2023-05-12T15:06:18.947Z,21.12
2023-05-12T15:07:18.780Z,21.06
2023-05-12T15:08:19.012Z,20.96
2023-05-12T15:09:18.857Z,20.96
2023-05-12T15:10:19.076Z,20.93
2023-05-12T15:11:18.909Z,20.81
2023-05-12T15:12:19.732Z,20.79
2023-05-12T15:13:18.955Z,20.71
2023-05-12T15:14:18.995Z,20.58
2023-05-12T15:15:19.211Z,20.66
2023-05-12T15:16:19.314Z,20.71
2023-05-12T15:17:19.244Z,20.63
2023-05-12T15:18:19.321Z,20.66
2023-05-12T15:19:19.469Z,20.64
2023-05-12T15:20:19.185Z,20.68
2023-05-12T15:21:19.224Z,20.72
2023-05-12T15:22:19.236Z,20.68
2023-05-12T15:24:19.317Z,20.71
2023-05-12T15:25:19.924Z,20.64
2023-05-12T15:26:32.111Z,20.72
2023-05-12T15:28:19.639Z,20.78
2023-05-12T15:29:19.483Z,20.81
2023-05-12T15:31:19.546Z,20.91
2023-05-12T15:32:19.549Z,20.90
2023-05-12T15:33:19.576Z,20.91
2023-05-12T15:34:19.613Z,20.91
2023-05-12T15:35:20.124Z,20.98
2023-05-12T15:36:19.699Z,21.04
2023-05-12T15:37:19.704Z,21.03
2023-05-12T15:38:19.738Z,21.06
2023-05-12T15:39:21.079Z,21.11
2023-05-12T15:40:20.017Z,21.21
2023-05-12T15:41:19.843Z,21.15
2023-05-12T15:42:26.291Z,21.16
2023-05-12T15:43:19.906Z,21.15
2023-05-12T15:44:19.939Z,21.11
2023-05-12T15:45:20.168Z,20.93
2023-05-12T15:46:20.358Z,20.91
2023-05-12T15:47:20.018Z,21.03
2023-05-12T15:48:20.118Z,20.97
2023-05-12T15:49:20.083Z,20.94
2023-05-12T15:50:20.116Z,20.98
2023-05-12T15:51:20.170Z,20.96
2023-05-12T15:52:20.185Z,20.82
2023-05-12T15:53:20.221Z,20.79
2023-05-12T15:54:20.964Z,20.94
2023-05-12T15:55:20.527Z,20.93
2023-05-12T15:57:20.333Z,20.97
2023-05-12T15:58:20.392Z,20.98
2023-05-12T15:59:23.016Z,20.98
2023-05-12T16:00:20.478Z,20.96
2023-05-12T16:01:20.485Z,20.98
2023-05-12T16:02:20.489Z,20.83
2023-05-12T16:03:20.636Z,20.79
2023-05-12T16:05:20.869Z,20.79
2023-05-12T16:06:20.623Z,20.85
2023-05-12T16:07:20.882Z,20.82
2023-05-12T16:08:20.892Z,20.82
2023-05-12T16:09:21.438Z,20.83
2023-05-12T16:10:20.746Z,20.81
2023-05-12T16:12:20.814Z,20.81
2023-05-12T16:17:20.968Z,20.90
2023-05-12T16:18:21.086Z,20.91
2023-05-12T16:21:21.102Z,20.94
2023-05-12T16:22:21.126Z,20.93
2023-05-12T16:23:21.385Z,20.90
2023-05-12T16:24:21.494Z,20.88
2023-05-12T16:27:21.288Z,20.97
2023-05-12T16:29:21.561Z,20.94
2023-05-12T16:30:21.584Z,20.88
2023-05-12T16:33:21.505Z,20.82
2023-05-12T16:37:23.022Z,20.67
2023-05-12T16:38:21.915Z,20.60
2023-05-12T16:39:22.065Z,20.58
2023-05-12T16:41:22.528Z,20.41
2023-05-12T16:45:22.792Z,20.27
2023-05-12T16:46:22.427Z,20.20
2023-05-12T16:47:22.104Z,20.15
2023-05-12T16:48:21.936Z,20.05
2023-05-12T16:49:22.273Z,20.05
2023-05-12T16:50:22.008Z,19.95
2023-05-12T16:54:22.128Z,19.47
2023-05-12T16:55:23.150Z,19.47
2023-05-12T16:57:22.198Z,19.12
2023-05-12T16:58:22.228Z,19.07
2023-05-12T16:59:22.254Z,18.87
2023-05-12T17:00:22.284Z,18.65
2023-05-12T17:01:22.431Z,18.61
2023-05-12T17:02:22.517Z,18.49
2023-05-12T17:03:22.433Z,18.36